Time;durP1;ratioP1;P1;durP2;ratioP2;P2;SDS_P1;SDS_P2;PMS_P1;PMS_P2;Temp;Humidity;BMP_temperature;BMP_pressure;BME280_temperature;BME280_humidity;BME280_pressure;Samples;Min_cycle;Max_cycle;Signal;HPM_P1;HPM_P2
2022/08/02 00:01:43;;;;;;;;;;;;;;;19.98;54.42;100851.97;5012572;28;6771;-74
2022/08/02 00:04:09;;;;;;;;;;;;;;;20.02;54.60;100852.00;5014574;28;6784;-74
2022/08/02 00:06:36;;;;;;;;;;;;;;;20.03;54.54;100846.84;4971991;28;6985;-74
2022/08/02 00:09:04;;;;;;;;;;;;;;;20.02;55.04;100844.19;5004296;28;7133;-75
2022/08/02 00:11:30;;;;;;;;;;;;;;;20.01;54.63;100856.34;5014299;28;7295;-75
2022/08/02 00:13:56;;;;;;;;;;;;;;;20.00;54.72;100854.59;5013004;28;7171;-75
2022/08/02 00:16:22;;;;;;;;;;;;;;;19.98;54.66;100841.56;5028471;28;9061;-75
2022/08/02 00:18:48;;;;;;;;;;;;;;;19.96;54.77;100847.56;5010536;28;7318;-75
2022/08/02 00:21:13;;;;;;;;;;;;;;;19.94;54.23;100847.56;4983913;28;8057;-75
2022/08/02 00:23:40;;;;;;;;;;;;;;;19.92;54.82;100844.00;5012379;28;6946;-75
2022/08/02 00:26:06;;;;;;;;;;;;;;;19.92;54.86;100843.16;5003034;28;7326;-75
2022/08/02 00:28:31;;;;;;;;;;;;;;;19.90;54.77;100845.72;4983550;28;6857;-75
2022/08/02 00:30:58;;;;;;;;;;;;;;;19.91;54.50;100844.00;4992283;28;7245;-75
2022/08/02 00:33:25;;;;;;;;;;;;;;;19.92;54.44;100840.56;5002296;28;7192;-75
2022/08/02 00:35:50;;;;;;;;;;;;;;;19.92;54.95;100833.63;4995343;28;7208;-75
2022/08/02 00:38:16;;;;;;;;;;;;;;;19.93;54.62;100842.31;5013753;28;7203;-75
2022/08/02 00:40:50;;;;;;;;;;;;;;;19.94;54.68;100831.97;5018875;28;6942;-75
2022/08/02 00:43:17;;;;;;;;;;;;;;;19.95;55.15;100825.91;4997423;28;6983;-75
2022/08/02 00:45:43;;;;;;;;;;;;;;;19.97;54.97;100824.19;5001580;28;8435;-74
2022/08/02 00:48:11;;;;;;;;;;;;;;;19.99;54.99;100816.44;5016870;28;7304;-75
2022/08/02 00:50:39;;;;;;;;;;;;;;;20.02;54.89;100819.06;5011801;28;6976;-75
2022/08/02 00:53:08;;;;;;;;;;;;;;;20.04;55.10;100822.56;4981832;28;7004;-75
2022/08/02 00:55:35;;;;;;;;;;;;;;;20.07;54.74;100826.94;5003529;28;7097;-75
2022/08/02 00:58:01;;;;;;;;;;;;;;;20.08;55.18;100826.09;4983232;28;6854;-75
2022/08/02 01:00:26;;;;;;;;;;;;;;;20.10;54.88;100817.47;5015595;28;7180;-75
2022/08/02 01:02:52;;;;;;;;;;;;;;;20.12;55.01;100826.16;5014088;28;6956;-75
2022/08/02 01:05:18;;;;;;;;;;;;;;;20.14;54.61;100825.31;5017535;28;6931;-75
2022/08/02 01:07:43;;;;;;;;;;;;;;;20.14;54.48;100821.00;5015010;28;6784;-75
2022/08/02 01:10:09;;;;;;;;;;;;;;;20.17;54.58;100827.94;5017493;28;6772;-75
2022/08/02 01:12:35;;;;;;;;;;;;;;;20.18;54.73;100832.28;4988094;28;6788;-75
2022/08/02 01:15:08;;;;;;;;;;;;;;;20.18;54.54;100827.09;5016042;28;7007;-75
2022/08/02 01:18:04;;;;;;;;;;;;;;;20.19;54.32;100824.53;4983715;28;6972;-75
2022/08/02 01:20:48;;;;;;;;;;;;;;;20.18;54.41;100827.09;4989533;28;7293;-75
2022/08/02 01:23:53;;;;;;;;;;;;;;;20.18;54.47;100821.88;5018808;28;7342;-75
2022/08/02 01:26:43;;;;;;;;;;;;;;;20.16;54.40;100818.41;4985114;28;7294;-75
2022/08/02 01:29:27;;;;;;;;;;;;;;;20.16;54.63;100813.19;5029299;28;8411;-75
2022/08/02 01:32:06;;;;;;;;;;;;;;;20.14;54.71;100805.38;4997852;28;8607;-75
2022/08/02 01:35:14;;;;;;;;;;;;;;;20.14;54.84;100804.50;5005881;28;8396;-74
2022/08/02 01:37:55;;;;;;;;;;;;;;;20.10;54.16;100799.25;4986164;28;7021;-75
2022/08/02 01:40:30;;;;;;;;;;;;;;;20.05;54.41;100798.28;5008049;28;7320;-75
2022/08/02 01:42:57;;;;;;;;;;;;;;;20.01;54.61;100806.03;5015647;28;6846;-75
2022/08/02 01:45:28;;;;;;;;;;;;;;;19.96;54.72;100799.03;5001941;28;6971;-75
2022/08/02 01:47:56;;;;;;;;;;;;;;;19.95;54.39;100801.59;4982339;28;6867;-75
2022/08/02 01:50:27;;;;;;;;;;;;;;;19.93;54.66;100791.16;5020736;28;6965;-74
2022/08/02 01:52:59;;;;;;;;;;;;;;;19.92;54.75;100778.13;5015319;28;6957;-75
2022/08/02 01:55:30;;;;;;;;;;;;;;;19.91;55.08;100778.97;4981913;28;8075;-75
2022/08/02 01:58:01;;;;;;;;;;;;;;;19.91;55.26;100787.66;5013491;28;6971;-75
2022/08/02 02:00:33;;;;;;;;;;;;;;;19.92;55.16;100783.34;5015993;28;7765;-75
2022/08/02 02:03:01;;;;;;;;;;;;;;;19.93;55.27;100787.69;5021325;28;6788;-75
2022/08/02 02:05:30;;;;;;;;;;;;;;;19.93;54.97;100795.47;5007147;28;8377;-75
2022/08/02 02:07:59;;;;;;;;;;;;;;;19.92;55.06;100793.75;5015122;28;7203;-75
2022/08/02 02:10:31;;;;;;;;;;;;;;;19.90;54.71;100791.09;4988562;28;7198;-75
2022/08/02 02:13:05;;;;;;;;;;;;;;;19.88;55.27;100786.72;4989996;28;7300;-75
2022/08/02 02:15:34;;;;;;;;;;;;;;;19.83;55.13;100784.03;4985210;28;7034;-77
2022/08/02 02:18:03;;;;;;;;;;;;;;;19.79;54.97;100779.66;4985314;28;6800;-77
2022/08/02 02:20:29;;;;;;;;;;;;;;;19.75;55.66;100776.13;4983893;28;7007;-76
2022/08/02 02:22:54;;;;;;;;;;;;;;;19.73;55.56;100783.03;5018649;28;7042;-77
2022/08/02 02:25:22;;;;;;;;;;;;;;;19.71;55.56;100775.19;5013585;28;7198;-77
2022/08/02 02:28:05;;;;;;;;;;;;;;;19.71;55.30;100775.19;5005792;28;8536;-77
2022/08/02 02:30:34;;;;;;;;;;;;;;;19.68;55.48;100769.97;4998146;28;7187;-77
2022/08/02 02:33:03;;;;;;;;;;;;;;;19.66;55.80;100769.06;5014820;28;6970;-77
2022/08/02 02:35:36;;;;;;;;;;;;;;;19.64;55.69;100765.53;5009133;28;7247;-77
2022/08/02 02:38:06;;;;;;;;;;;;;;;19.63;55.62;100768.13;5013585;28;8288;-80
2022/08/02 02:40:36;;;;;;;;;;;;;;;19.61;55.73;100762.91;5010653;28;7011;-80
2022/08/02 02:43:05;;;;;;;;;;;;;;;19.57;55.95;100766.31;5027817;28;8551;-80
2022/08/02 02:45:34;;;;;;;;;;;;;;;19.53;55.47;100762.78;4984431;28;6860;-80
2022/08/02 02:48:02;;;;;;;;;;;;;;;19.47;55.78;100760.06;5009534;28;6948;-80
2022/08/02 02:50:30;;;;;;;;;;;;;;;19.45;55.59;100759.19;5001326;28;7106;-78
2022/08/02 02:52:57;;;;;;;;;;;;;;;19.42;56.00;100769.53;4982402;28;6957;-78
2022/08/02 02:55:24;;;;;;;;;;;;;;;19.39;56.22;100761.66;5014438;28;7860;-79
2022/08/02 02:57:50;;;;;;;;;;;;;;;19.34;55.79;100753.78;5028499;28;6989;-78
2022/08/02 03:00:17;;;;;;;;;;;;;;;19.32;56.13;100758.09;5013999;28;6980;-78
2022/08/02 03:02:44;;;;;;;;;;;;;;;19.28;55.67;100751.94;5015275;28;6982;-78
2022/08/02 03:05:11;;;;;;;;;;;;;;;19.24;56.53;100747.56;5005571;28;7022;-77
2022/08/02 03:07:38;;;;;;;;;;;;;;;19.24;55.95;100754.47;4987236;28;6982;-77
2022/08/02 03:10:06;;;;;;;;;;;;;;;19.20;56.20;100742.28;5013832;28;6788;-78
2022/08/02 03:12:34;;;;;;;;;;;;;;;19.16;56.62;100733.56;5031714;28;8508;-77
2022/08/02 03:15:04;;;;;;;;;;;;;;;19.13;56.90;100729.16;4976878;28;7129;-77
2022/08/02 03:17:42;;;;;;;;;;;;;;;19.12;56.29;100726.53;5010381;28;6879;-77
2022/08/02 03:20:17;;;;;;;;;;;;;;;19.11;56.83;100730.00;4979498;28;6976;-77
2022/08/02 03:22:45;;;;;;;;;;;;;;;19.07;56.34;100730.78;4982050;28;6888;-77
2022/08/02 03:25:12;;;;;;;;;;;;;;;19.06;56.72;100729.91;5010789;28;7361;-77
2022/08/02 03:27:38;;;;;;;;;;;;;;;19.04;57.05;100736.81;4975400;28;7285;-77
2022/08/02 03:30:10;;;;;;;;;;;;;;;19.01;56.59;100729.81;5011975;28;6792;-77
2022/08/02 03:32:39;;;;;;;;;;;;;;;18.98;57.18;100734.94;4977032;28;7214;-77
2022/08/02 03:35:09;;;;;;;;;;;;;;;18.95;57.07;100728.81;5007711;28;7445;-78
2022/08/02 03:37:37;;;;;;;;;;;;;;;18.92;57.28;100729.63;5012055;28;7186;-77
2022/08/02 03:40:08;;;;;;;;;;;;;;;18.92;56.94;100734.81;4983972;28;6832;-77
2022/08/02 03:42:34;;;;;;;;;;;;;;;18.93;57.24;100728.78;5011182;28;7285;-77
2022/08/02 03:45:03;;;;;;;;;;;;;;;18.95;56.98;100734.88;5023468;28;6950;-77
2022/08/02 03:47:30;;;;;;;;;;;;;;;18.97;56.92;100735.78;4983478;28;6965;-78
2022/08/02 03:49:57;;;;;;;;;;;;;;;18.99;57.32;100735.81;5010399;28;6997;-78
2022/08/02 03:52:25;;;;;;;;;;;;;;;19.01;56.98;100739.34;4989361;28;7064;-77
2022/08/02 03:54:51;;;;;;;;;;;;;;;19.00;57.05;100730.66;5012064;28;6807;-77
2022/08/02 03:57:16;;;;;;;;;;;;;;;19.04;57.28;100735.94;5027517;28;6978;-77
2022/08/02 03:59:45;;;;;;;;;;;;;;;19.07;56.73;100730.78;4990665;28;6956;-77
2022/08/02 04:02:12;;;;;;;;;;;;;;;19.10;57.31;100731.72;5007463;28;6816;-78
2022/08/02 04:04:38;;;;;;;;;;;;;;;19.13;57.14;100728.31;5020779;28;7010;-77
2022/08/02 04:07:05;;;;;;;;;;;;;;;19.16;57.38;100736.16;5013432;28;6779;-78
2022/08/02 04:09:31;;;;;;;;;;;;;;;19.18;56.47;100737.06;5009975;28;6821;-77
2022/08/02 04:11:56;;;;;;;;;;;;;;;19.19;56.10;100737.94;4972937;28;6796;-78
2022/08/02 04:14:23;;;;;;;;;;;;;;;19.22;56.36;100746.66;4993302;28;7471;-78
2022/08/02 04:16:58;;;;;;;;;;;;;;;19.22;56.58;100746.66;5006055;28;6807;-79
2022/08/02 04:19:31;;;;;;;;;;;;;;;19.23;56.41;100748.41;4985309;28;7880;-78
2022/08/02 04:22:03;;;;;;;;;;;;;;;19.23;55.94;100745.81;5005404;28;7212;-77
2022/08/02 04:24:39;;;;;;;;;;;;;;;19.25;56.31;100754.50;4996247;28;6986;-77
2022/08/02 04:27:08;;;;;;;;;;;;;;;19.26;55.99;100748.47;5012398;28;7246;-77
2022/08/02 04:29:36;;;;;;;;;;;;;;;19.29;56.38;100745.03;4976635;28;7007;-77
2022/08/02 04:32:03;;;;;;;;;;;;;;;19.32;56.21;100737.28;5004937;28;6966;-77
2022/08/02 04:34:30;;;;;;;;;;;;;;;19.37;55.86;100742.56;5002881;28;7204;-77
2022/08/02 04:36:57;;;;;;;;;;;;;;;19.40;56.82;100742.63;5003649;28;6982;-77
2022/08/02 04:39:23;;;;;;;;;;;;;;;19.45;56.09;100751.38;4974810;28;6804;-77
2022/08/02 04:41:49;;;;;;;;;;;;;;;19.52;56.89;100748.03;5010206;28;7194;-77
2022/08/02 04:44:14;;;;;;;;;;;;;;;19.65;56.77;100756.91;5025895;28;6955;-77
2022/08/02 04:46:42;;;;;;;;;;;;;;;19.82;57.23;100759.78;4955731;28;8055;-77
2022/08/02 04:49:08;;;;;;;;;;;;;;;20.02;56.77;100764.44;4981806;28;6983;-77
2022/08/02 04:51:42;;;;;;;;;;;;;;;20.23;56.74;100748.28;4980014;28;6796;-77
2022/08/02 04:54:09;;;;;;;;;;;;;;;20.43;56.32;100758.06;4982937;28;6856;-77
2022/08/02 04:56:38;;;;;;;;;;;;;;;20.65;56.52;100746.16;4977249;28;7247;-77
2022/08/02 04:59:05;;;;;;;;;;;;;;;20.92;56.28;100756.94;5012192;28;7044;-77
2022/08/02 05:01:31;;;;;;;;;;;;;;;21.20;56.29;100745.06;5008407;28;6924;-77
2022/08/02 05:03:56;;;;;;;;;;;;;;;21.52;56.15;100735.78;4981353;28;7679;-75
2022/08/02 05:06:22;;;;;;;;;;;;;;;21.89;56.16;100737.81;5014386;28;6979;-75
2022/08/02 05:08:48;;;;;;;;;;;;;;;22.24;56.25;100731.91;4978988;28;7013;-74
2022/08/02 05:11:14;;;;;;;;;;;;;;;22.61;54.85;100728.63;5011760;28;6784;-76
2022/08/02 05:13:41;;;;;;;;;;;;;;;22.92;53.53;100723.47;4978077;28;9128;-75
2022/08/02 05:16:07;;;;;;;;;;;;;;;23.21;52.56;100730.47;4993690;28;7161;-75
2022/08/02 05:18:32;;;;;;;;;;;;;;;23.42;52.36;100723.56;4994774;28;7216;-75
2022/08/02 05:20:58;;;;;;;;;;;;;;;23.58;51.81;100716.56;4978548;28;8384;-75
2022/08/02 05:23:24;;;;;;;;;;;;;;;23.76;52.23;100725.25;5010353;28;6942;-76
2022/08/02 05:25:50;;;;;;;;;;;;;;;23.96;51.91;100726.09;4984250;28;6825;-76
2022/08/02 05:28:15;;;;;;;;;;;;;;;24.17;51.87;100723.44;5014806;28;6938;-76
2022/08/02 05:30:41;;;;;;;;;;;;;;;24.35;51.72;100723.38;4983213;28;8213;-77
2022/08/02 05:33:08;;;;;;;;;;;;;;;24.50;50.78;100727.69;4998495;28;7119;-75
2022/08/02 05:35:34;;;;;;;;;;;;;;;24.61;50.83;100730.25;5010327;28;7128;-75
2022/08/02 05:37:59;;;;;;;;;;;;;;;24.76;50.17;100729.31;4993427;28;6965;-75
2022/08/02 05:40:25;;;;;;;;;;;;;;;24.93;50.37;100733.63;5028194;28;8004;-75
2022/08/02 05:42:51;;;;;;;;;;;;;;;25.08;49.48;100737.88;5012738;28;7050;-75
2022/08/02 05:45:17;;;;;;;;;;;;;;;25.24;49.36;100730.78;4980719;28;6792;-75
2022/08/02 05:47:42;;;;;;;;;;;;;;;25.39;49.24;100721.91;4982012;28;7098;-77
2022/08/02 05:50:09;;;;;;;;;;;;;;;25.55;48.60;100722.66;5015785;28;7172;-77
2022/08/02 05:53:33;;;;;;;;;;;;;;;25.70;48.12;100713.78;4983337;28;6776;-76
2022/08/02 05:56:32;;;;;;;;;;;;;;;25.81;47.41;100721.53;5009736;28;7039;-76
2022/08/02 05:59:32;;;;;;;;;;;;;;;25.87;47.06;100734.59;5019250;28;6975;-76
2022/08/02 06:02:09;;;;;;;;;;;;;;;25.84;46.45;100737.25;5013255;28;6796;-76
2022/08/02 06:05:10;;;;;;;;;;;;;;;25.79;46.54;100723.31;5011895;28;7055;-76
2022/08/02 06:07:37;;;;;;;;;;;;;;;25.74;46.82;100717.25;5009686;28;7233;-76
2022/08/02 06:10:08;;;;;;;;;;;;;;;25.74;47.37;100718.13;4999518;28;7012;-76
2022/08/02 06:13:09;;;;;;;;;;;;;;;25.75;47.05;100718.97;4998733;28;7379;-76
2022/08/02 06:15:37;;;;;;;;;;;;;;;25.76;47.08;100718.09;5010216;28;7254;-76
2022/08/02 06:18:05;;;;;;;;;;;;;;;25.75;47.05;100719.84;4982156;28;6816;-76
2022/08/02 06:20:34;;;;;;;;;;;;;;;25.75;46.72;100713.72;5003861;28;8035;-76
2022/08/02 06:23:05;;;;;;;;;;;;;;;25.75;47.20;100716.34;4994697;28;6997;-76
2022/08/02 06:25:34;;;;;;;;;;;;;;;25.74;46.85;100714.63;5010194;28;8284;-77
2022/08/02 06:28:03;;;;;;;;;;;;;;;25.75;47.06;100721.59;5015001;28;8127;-77
2022/08/02 06:30:31;;;;;;;;;;;;;;;25.76;46.70;100715.47;5012888;28;6847;-77
2022/08/02 06:32:57;;;;;;;;;;;;;;;25.79;47.18;100700.56;4994323;28;7007;-77
2022/08/02 06:35:55;;;;;;;;;;;;;;;25.86;46.85;100700.50;5009699;28;7856;-77
2022/08/02 06:38:26;;;;;;;;;;;;;;;25.90;46.70;100708.31;5013819;28;7164;-77
2022/08/02 06:41:08;;;;;;;;;;;;;;;25.92;46.66;100709.16;5008442;28;7051;-76
2022/08/02 06:43:54;;;;;;;;;;;;;;;25.96;46.85;100717.88;5009301;28;6835;-76
2022/08/02 06:46:21;;;;;;;;;;;;;;;26.01;46.53;100723.09;5010890;28;7698;-76
2022/08/02 06:48:47;;;;;;;;;;;;;;;26.06;46.73;100724.78;5013218;28;7316;-76
2022/08/02 06:51:13;;;;;;;;;;;;;;;26.16;47.05;100722.88;5013445;28;7001;-76
2022/08/02 06:53:39;;;;;;;;;;;;;;;26.26;46.21;100728.06;4979708;28;6811;-76
2022/08/02 06:56:05;;;;;;;;;;;;;;;26.31;46.57;100724.50;4974453;28;6791;-76
2022/08/02 06:58:30;;;;;;;;;;;;;;;26.38;46.50;100722.69;5014525;28;7235;-77
2022/08/02 07:00:56;;;;;;;;;;;;;;;26.45;46.62;100721.69;4975309;28;6776;-76
2022/08/02 07:03:24;;;;;;;;;;;;;;;26.51;46.40;100720.78;4994569;28;7032;-76
2022/08/02 07:05:51;;;;;;;;;;;;;;;26.59;46.29;100731.16;4998221;28;6997;-76
2022/08/02 07:08:18;;;;;;;;;;;;;;;26.64;45.90;100724.06;5009683;28;7201;-76
2022/08/02 07:10:45;;;;;;;;;;;;;;;26.72;45.78;100729.25;4980735;28;6804;-76
2022/08/02 07:13:11;;;;;;;;;;;;;;;26.81;45.73;100729.13;4982150;28;7201;-76
2022/08/02 07:15:38;;;;;;;;;;;;;;;26.87;45.80;100725.53;5013014;28;6852;-76
2022/08/02 07:18:05;;;;;;;;;;;;;;;26.97;45.50;100726.28;5009560;28;7055;-76
2022/08/02 07:20:31;;;;;;;;;;;;;;;27.09;45.52;100728.72;5012196;28;7277;-76
2022/08/02 07:22:56;;;;;;;;;;;;;;;27.24;45.49;100726.72;5010461;28;7055;-76
2022/08/02 07:25:22;;;;;;;;;;;;;;;27.39;44.75;100725.59;4975827;28;6946;-76
2022/08/02 07:27:48;;;;;;;;;;;;;;;27.54;44.73;100720.13;5011390;28;7240;-76
2022/08/02 07:30:13;;;;;;;;;;;;;;;27.69;44.22;100720.72;4994924;28;7032;-76
2022/08/02 07:32:39;;;;;;;;;;;;;;;27.85;43.86;100718.66;5013609;28;6780;-76
2022/08/02 07:35:06;;;;;;;;;;;;;;;28.00;43.25;100717.50;5000694;28;7540;-76
2022/08/02 07:37:33;;;;;;;;;;;;;;;28.17;43.15;100726.84;4978745;28;6800;-76
2022/08/02 07:39:59;;;;;;;;;;;;;;;28.36;43.35;100724.75;4974840;28;7418;-76
2022/08/02 07:42:27;;;;;;;;;;;;;;;28.61;42.82;100727.69;5012960;28;6784;-76
2022/08/02 07:44:53;;;;;;;;;;;;;;;28.88;41.89;100720.09;5011179;28;7192;-76
2022/08/02 07:47:18;;;;;;;;;;;;;;;29.15;41.38;100716.84;5007600;28;7201;-76
2022/08/02 07:49:44;;;;;;;;;;;;;;;29.39;41.01;100712.69;4980679;28;7654;-76
2022/08/02 07:52:10;;;;;;;;;;;;;;;29.60;40.83;100706.03;5008062;28;6808;-76
2022/08/02 07:54:36;;;;;;;;;;;;;;;29.70;40.43;100704.00;4979988;28;7069;-76
2022/08/02 07:57:02;;;;;;;;;;;;;;;29.70;39.63;100711.03;5007442;28;6799;-76
2022/08/02 07:59:28;;;;;;;;;;;;;;;29.66;39.28;100707.63;4980621;28;6796;-76
2022/08/02 08:01:54;;;;;;;;;;;;;;;29.62;39.60;100712.13;5013280;28;6884;-76
2022/08/02 08:04:20;;;;;;;;;;;;;;;29.60;40.12;100700.75;5008836;28;6811;-76
2022/08/02 08:06:50;;;;;;;;;;;;;;;29.61;39.79;100701.59;5011886;28;6796;-76
2022/08/02 08:09:16;;;;;;;;;;;;;;;29.62;40.06;100712.13;4980508;28;7302;-76
2022/08/02 08:11:42;;;;;;;;;;;;;;;29.63;39.84;100710.34;5009805;28;7171;-76
2022/08/02 08:14:08;;;;;;;;;;;;;;;29.70;39.65;100705.75;5009153;28;7105;-76
2022/08/02 08:16:33;;;;;;;;;;;;;;;29.75;39.40;100704.75;5010627;28;6776;-76
2022/08/02 08:18:59;;;;;;;;;;;;;;;29.82;39.58;100709.84;5009419;28;6856;-76
2022/08/02 08:21:25;;;;;;;;;;;;;;;29.85;39.44;100707.13;5012202;28;6840;-76
2022/08/02 08:23:50;;;;;;;;;;;;;;;29.87;39.75;100707.94;5012263;28;6990;-76
2022/08/02 08:26:16;;;;;;;;;;;;;;;29.89;39.85;100700.84;4979243;28;6768;-76
2022/08/02 08:28:42;;;;;;;;;;;;;;;29.97;39.77;100709.41;4981742;28;7163;-76
2022/08/02 08:31:07;;;;;;;;;;;;;;;30.03;39.34;100706.59;4979195;28;7050;-76
2022/08/02 08:33:33;;;;;;;;;;;;;;;30.10;39.81;100695.88;5009202;28;6960;-76
2022/08/02 08:35:59;;;;;;;;;;;;;;;30.21;40.08;100699.06;5009340;28;7178;-76
2022/08/02 08:38:24;;;;;;;;;;;;;;;30.34;38.96;100702.22;4988955;28;8574;-76
2022/08/02 08:40:51;;;;;;;;;;;;;;;30.50;38.72;100697.31;5033479;28;6947;-77
2022/08/02 08:43:17;;;;;;;;;;;;;;;30.71;38.81;100695.81;4986236;28;7054;-76
2022/08/02 08:45:47;;;;;;;;;;;;;;;30.98;38.64;100693.22;5015486;28;7151;-76
2022/08/02 08:48:17;;;;;;;;;;;;;;;31.35;37.75;100696.41;5011191;28;6811;-76
2022/08/02 08:50:55;;;;;;;;;;;;;;;31.78;37.16;100694.03;4985035;28;6808;-77
2022/08/02 08:53:25;;;;;;;;;;;;;;;32.27;36.15;100696.66;4975046;28;7011;-76
2022/08/02 08:55:55;;;;;;;;;;;;;;;32.87;35.83;100695.22;4988782;28;7199;-77
2022/08/02 08:58:21;;;;;;;;;;;;;;;33.52;34.82;100681.91;4980967;28;7386;-76
2022/08/02 09:00:46;;;;;;;;;;;;;;;34.03;33.64;100692.06;5010048;28;6851;-77
2022/08/02 09:03:12;;;;;;;;;;;;;;;34.44;33.40;100685.75;4983619;28;6927;-76
2022/08/02 09:05:40;;;;;;;;;;;;;;;34.78;32.78;100688.59;4981761;28;7106;-76
2022/08/02 09:08:07;;;;;;;;;;;;;;;34.97;32.29;100688.53;4981002;28;6784;-78
2022/08/02 09:10:42;;;;;;;;;;;;;;;35.25;31.47;100687.16;5016029;28;6944;-78
2022/08/02 09:13:30;;;;;;;;;;;;;;;35.72;31.44;100682.06;4977585;28;6792;-78
2022/08/02 09:15:59;;;;;;;;;;;;;;;36.25;31.58;100685.44;4986441;28;7521;-78
2022/08/02 09:18:43;;;;;;;;;;;;;;;36.85;30.66;100685.66;5010512;28;7175;-78
2022/08/02 09:21:09;;;;;;;;;;;;;;;37.28;29.71;100681.41;4984532;28;6801;-78
2022/08/02 09:23:48;;;;;;;;;;;;;;;37.61;28.60;100680.31;5015097;28;6796;-78
2022/08/02 09:26:20;;;;;;;;;;;;;;;37.83;28.64;100670.94;4983950;28;7193;-78
2022/08/02 09:28:50;;;;;;;;;;;;;;;37.97;28.06;100675.44;4979984;28;7211;-77
2022/08/02 09:31:18;;;;;;;;;;;;;;;37.87;27.98;100673.34;4977936;28;6966;-78
2022/08/02 09:33:53;;;;;;;;;;;;;;;37.69;27.22;100680.72;4995000;28;6977;-78
2022/08/02 09:36:20;;;;;;;;;;;;;;;37.20;27.44;100688.09;4975567;28;7095;-77
2022/08/02 09:39:00;;;;;;;;;;;;;;;36.71;27.88;100696.31;4962309;28;6969;-78
2022/08/02 09:41:31;;;;;;;;;;;;;;;36.37;27.89;100696.38;4980387;28;7339;-77
2022/08/02 09:44:00;;;;;;;;;;;;;;;35.90;28.54;100690.03;5012033;28;6799;-76
2022/08/02 09:46:30;;;;;;;;;;;;;;;35.55;28.93;100689.19;4980340;28;6961;-76
2022/08/02 09:49:08;;;;;;;;;;;;;;;35.68;29.62;100681.38;5000418;28;6887;-78
2022/08/02 09:51:49;;;;;;;;;;;;;;;36.15;29.69;100676.22;4983663;28;7036;-78
2022/08/02 09:54:27;;;;;;;;;;;;;;;36.75;28.92;100681.81;4982439;28;7201;-77
2022/08/02 09:56:58;;;;;;;;;;;;;;;37.27;28.26;100683.22;5011235;28;6969;-77
2022/08/02 09:59:26;;;;;;;;;;;;;;;37.33;27.46;100685.53;4979571;28;6992;-78
2022/08/02 10:01:54;;;;;;;;;;;;;;;37.02;27.50;100689.16;4981679;28;6816;-78
2022/08/02 10:04:27;;;;;;;;;;;;;;;36.57;28.13;100681.09;5011656;28;6823;-77
2022/08/02 10:06:53;;;;;;;;;;;;;;;36.11;27.93;100680.88;5024628;28;7067;-77
2022/08/02 10:09:20;;;;;;;;;;;;;;;35.68;28.61;100677.88;4997565;28;6979;-77
2022/08/02 10:11:47;;;;;;;;;;;;;;;35.65;28.75;100680.72;5010777;28;7357;-77
2022/08/02 10:14:13;;;;;;;;;;;;;;;36.02;28.84;100676.00;5013174;28;6976;-77
2022/08/02 10:16:42;;;;;;;;;;;;;;;36.47;28.24;100675.38;5013878;28;7114;-78
2022/08/02 10:19:08;;;;;;;;;;;;;;;36.90;27.53;100670.25;4981811;28;7377;-77
2022/08/02 10:21:45;;;;;;;;;;;;;;;37.24;27.39;100665.56;5014488;28;6948;-78
2022/08/02 10:24:14;;;;;;;;;;;;;;;37.61;27.24;100659.78;4976598;28;6954;-78
2022/08/02 10:26:43;;;;;;;;;;;;;;;38.03;27.19;100659.88;5013773;28;6999;-78
2022/08/02 10:29:14;;;;;;;;;;;;;;;38.46;26.49;100668.75;5011420;28;7221;-78
2022/08/02 10:31:52;;;;;;;;;;;;;;;38.86;25.90;100668.78;4945779;28;1055055;-77
2022/08/02 10:34:23;;;;;;;;;;;;;;;38.77;25.36;100653.34;4985533;28;6970;-77
2022/08/02 10:36:51;;;;;;;;;;;;;;;38.48;25.58;100648.09;4984368;28;6977;-77
2022/08/02 10:39:17;;;;;;;;;;;;;;;38.50;25.72;100650.69;4985905;28;6792;-77
2022/08/02 10:41:52;;;;;;;;;;;;;;;38.74;25.59;100651.72;5014111;28;6764;-77
2022/08/02 10:44:28;;;;;;;;;;;;;;;39.13;25.32;100651.81;4999249;28;7117;-77
2022/08/02 10:47:24;;;;;;;;;;;;;;;39.72;24.71;100649.53;5013879;28;7185;-78
2022/08/02 10:49:59;;;;;;;;;;;;;;;40.37;24.05;100654.72;4983387;28;6984;-78
2022/08/02 10:52:29;;;;;;;;;;;;;;;40.91;23.54;100655.22;5011966;28;6973;-78
2022/08/02 10:55:01;;;;;;;;;;;;;;;41.17;22.70;100649.63;4977727;28;7859;-78
2022/08/02 10:57:33;;;;;;;;;;;;;;;40.99;22.62;100643.84;4977826;28;6800;-78
2022/08/02 11:00:25;;;;;;;;;;;;;;;40.75;22.67;100645.59;4992795;28;7034;-77
2022/08/02 11:02:52;;;;;;;;;;;;;;;40.67;22.33;100648.03;5008177;28;11681;-78
2022/08/02 11:05:31;;;;;;;;;;;;;;;40.39;22.57;100644.75;5026936;28;8428;-78
2022/08/02 11:07:57;;;;;;;;;;;;;;;40.36;22.64;100636.91;4981365;28;8151;-78
2022/08/02 11:10:33;;;;;;;;;;;;;;;40.49;22.85;100637.72;4980824;28;7978;-77
2022/08/02 11:13:15;;;;;;;;;;;;;;;40.79;22.71;100638.19;4982164;28;7266;-77
2022/08/02 11:16:03;;;;;;;;;;;;;;;41.15;22.47;100633.63;5000102;28;7192;-78
2022/08/02 11:18:50;;;;;;;;;;;;;;;41.18;22.40;100636.06;4985974;28;6962;-77
2022/08/02 11:21:25;;;;;;;;;;;;;;;41.29;22.51;100627.19;5011734;28;7028;-77
2022/08/02 11:23:51;;;;;;;;;;;;;;;41.28;22.51;100641.63;4979624;28;6970;-77
2022/08/02 11:26:29;;;;;;;;;;;;;;;40.91;22.26;100633.72;4987890;28;7045;-77
2022/08/02 11:29:01;;;;;;;;;;;;;;;40.43;22.74;100638.16;5010197;28;7325;-77
2022/08/02 11:31:29;;;;;;;;;;;;;;;40.09;22.94;100630.78;4979796;28;7265;-77
2022/08/02 11:33:55;;;;;;;;;;;;;;;40.09;23.20;100632.63;4997398;28;7251;-77
2022/08/02 11:36:21;;;;;;;;;;;;;;;40.09;23.21;100632.63;5012594;28;6966;-77
2022/08/02 11:38:47;;;;;;;;;;;;;;;39.98;23.28;100634.28;4977887;28;6800;-76
2022/08/02 11:41:22;;;;;;;;;;;;;;;39.77;23.35;100633.09;5031232;28;8322;-77
2022/08/02 11:43:55;;;;;;;;;;;;;;;39.50;23.70;100636.78;5010054;28;6796;-77
2022/08/02 11:46:21;;;;;;;;;;;;;;;39.20;23.87;100643.31;5011646;28;6840;-77
2022/08/02 11:48:46;;;;;;;;;;;;;;;38.87;24.12;100645.50;5012488;28;6859;-77
2022/08/02 11:51:16;;;;;;;;;;;;;;;38.54;24.32;100645.03;4982698;28;6779;-77
2022/08/02 11:53:56;;;;;;;;;;;;;;;38.23;24.52;100636.31;5011727;28;7184;-77
2022/08/02 11:56:29;;;;;;;;;;;;;;;37.88;24.63;100642.97;4986126;28;6803;-77
2022/08/02 11:59:03;;;;;;;;;;;;;;;37.51;25.16;100634.56;4981749;28;6976;-77
2022/08/02 12:01:30;;;;;;;;;;;;;;;37.31;25.51;100633.97;5028571;28;6978;-77
2022/08/02 12:03:57;;;;;;;;;;;;;;;37.22;26.00;100626.53;5012159;28;7117;-77
2022/08/02 12:06:24;;;;;;;;;;;;;;;37.33;25.94;100625.88;5010165;28;6873;-77
2022/08/02 12:08:50;;;;;;;;;;;;;;;37.67;25.89;100626.50;4979867;28;7225;-76
2022/08/02 12:11:19;;;;;;;;;;;;;;;38.19;25.48;100621.44;4995899;28;6951;-76
2022/08/02 12:13:45;;;;;;;;;;;;;;;38.76;24.91;100627.50;5006411;28;7112;-76
2022/08/02 12:21:42;;;;;;;;;;;;;;;40.22;23.69;100617.31;4976434;28;7209;-77
2022/08/02 12:24:09;;;;;;;;;;;;;;;40.31;23.28;100615.75;4979137;28;7285;-76
2022/08/02 12:26:42;;;;;;;;;;;;;;;40.12;22.87;100617.13;5008085;28;7228;-76
2022/08/02 12:29:08;;;;;;;;;;;;;;;39.83;23.03;100617.41;4978453;28;7195;-76
2022/08/02 12:31:48;;;;;;;;;;;;;;;39.52;23.28;100610.75;5007966;28;6942;-76
2022/08/02 12:34:19;;;;;;;;;;;;;;;39.20;23.66;100619.22;4979386;28;6867;-77
2022/08/02 12:37:09;;;;;;;;;;;;;;;38.80;23.54;100618.28;5009536;28;7765;-77
2022/08/02 12:39:44;;;;;;;;;;;;;;;38.44;23.68;100622.47;4984216;28;7192;-76
2022/08/02 12:42:13;;;;;;;;;;;;;;;38.16;24.26;100616.28;4991145;28;7028;-77
2022/08/02 12:44:57;;;;;;;;;;;;;;;38.02;24.28;100612.69;4981169;28;7133;-76
2022/08/02 12:47:23;;;;;;;;;;;;;;;37.99;24.45;100609.31;5012408;28;7801;-76
2022/08/02 12:50:23;;;;;;;;;;;;;;;38.06;24.70;100613.34;5014201;28;8046;-76
2022/08/02 12:52:50;;;;;;;;;;;;;;;38.26;24.75;100604.03;4977844;28;6811;-76
2022/08/02 12:55:24;;;;;;;;;;;;;;;38.67;24.50;100609.41;4982750;28;7403;-76
2022/08/02 12:57:56;;;;;;;;;;;;;;;39.24;24.08;100596.59;5010382;28;7197;-77
2022/08/02 13:00:37;;;;;;;;;;;;;;;39.83;23.60;100597.81;4989753;28;7114;-77
2022/08/02 13:03:05;;;;;;;;;;;;;;;40.20;22.85;100586.19;4996705;28;6838;-77
2022/08/02 13:05:35;;;;;;;;;;;;;;;40.41;22.43;100583.75;4980204;28;6979;-77
2022/08/02 13:08:02;;;;;;;;;;;;;;;40.56;21.96;100592.47;4983327;28;6892;-77